createdAt,value
2022-12-24T00:02:49.416Z,2.80
2022-12-24T00:05:52.646Z,3.10
2022-12-24T00:08:55.432Z,3.00
2022-12-24T00:11:58.367Z,3.30
2022-12-24T00:15:01.222Z,3.10
2022-12-24T00:18:04.117Z,2.80
2022-12-24T00:21:07.339Z,3.30
2022-12-24T00:24:10.631Z,3.20
2022-12-24T00:27:13.423Z,4.00
2022-12-24T00:30:16.435Z,2.80
2022-12-24T00:33:24.234Z,2.10
2022-12-24T00:36:27.642Z,1.50
2022-12-24T00:39:31.204Z,0.80
2022-12-24T00:42:34.043Z,1.50
2022-12-24T00:45:36.817Z,0.70
2022-12-24T00:48:39.537Z,0.50
2022-12-24T00:51:42.442Z,0.70
2022-12-24T00:54:45.205Z,1.00
2022-12-24T00:57:47.954Z,1.30
2022-12-24T01:00:51.032Z,0.90
2022-12-24T01:04:14.612Z,1.20
2022-12-24T01:07:17.455Z,0.50
2022-12-24T01:10:20.823Z,0.80
2022-12-24T01:13:24.100Z,1.70
2022-12-24T01:16:27.153Z,2.00
2022-12-24T01:19:30.243Z,0.90
2022-12-24T01:22:33.042Z,1.00
2022-12-24T01:25:38.627Z,1.80
2022-12-24T01:28:42.250Z,0.80
2022-12-24T01:31:45.151Z,1.20
2022-12-24T01:34:50.181Z,1.00
2022-12-24T01:37:53.018Z,0.50
2022-12-24T01:41:14.708Z,0.30
2022-12-24T01:44:20.610Z,0.50
2022-12-24T01:47:30.447Z,1.30
2022-12-24T01:50:33.287Z,2.00
2022-12-24T01:53:38.658Z,0.50
2022-12-24T01:56:49.144Z,1.30
2022-12-24T01:59:57.962Z,0.80
2022-12-24T02:03:01.011Z,1.50
2022-12-24T02:06:04.928Z,0.80
2022-12-24T02:09:07.815Z,1.10
2022-12-24T02:12:10.761Z,1.30
2022-12-24T02:15:15.566Z,1.80
2022-12-24T02:18:34.079Z,2.50
2022-12-24T02:21:53.627Z,1.20
2022-12-24T02:25:16.759Z,1.80
2022-12-24T02:28:40.745Z,1.40
2022-12-24T02:32:12.370Z,2.10
2022-12-24T02:35:35.624Z,1.60
2022-12-24T02:38:51.977Z,0.80
2022-12-24T02:42:07.327Z,1.30
2022-12-24T02:45:31.698Z,1.60
2022-12-24T02:48:36.413Z,1.90
2022-12-24T02:51:39.233Z,1.70
2022-12-24T02:54:42.310Z,2.20
2022-12-24T02:58:18.743Z,2.80
2022-12-24T03:02:19.788Z,3.00
2022-12-24T03:05:55.286Z,1.50
2022-12-24T03:09:19.864Z,2.10
2022-12-24T03:12:43.040Z,3.30
2022-12-24T03:15:47.153Z,3.20
2022-12-24T03:18:53.377Z,2.50
2022-12-24T03:25:01.563Z,2.50
2022-12-24T03:28:07.380Z,3.40
2022-12-24T03:31:11.725Z,4.80
2022-12-24T03:34:16.151Z,4.10
2022-12-24T03:37:18.939Z,2.60
2022-12-24T03:40:21.788Z,3.20
2022-12-24T03:43:24.678Z,4.00
2022-12-24T03:46:28.251Z,3.50
2022-12-24T03:49:31.110Z,3.30
2022-12-24T03:52:33.984Z,2.00
2022-12-24T03:55:37.895Z,3.00
2022-12-24T03:58:40.771Z,3.90
2022-12-24T04:01:43.676Z,4.60
2022-12-24T04:04:46.593Z,3.30
2022-12-24T04:07:49.426Z,3.80
2022-12-24T04:10:52.305Z,4.40
2022-12-24T04:13:55.177Z,3.60
2022-12-24T04:16:58.081Z,3.10
2022-12-24T04:20:00.944Z,2.50
2022-12-24T04:23:03.826Z,4.40
2022-12-24T04:26:08.866Z,3.40
2022-12-24T04:29:11.782Z,4.80
2022-12-24T04:32:14.915Z,3.40
2022-12-24T04:35:17.750Z,2.30
2022-12-24T04:38:20.519Z,4.00
2022-12-24T04:41:25.139Z,4.60
2022-12-24T04:44:28.083Z,4.40
2022-12-24T04:47:30.972Z,3.80
2022-12-24T04:50:33.840Z,3.20
2022-12-24T04:53:38.095Z,4.30
2022-12-24T04:56:40.950Z,4.80
2022-12-24T04:59:43.800Z,3.50
2022-12-24T05:02:46.679Z,4.20
2022-12-24T05:05:49.632Z,4.80
2022-12-24T05:08:55.952Z,4.30
2022-12-24T05:11:58.855Z,3.50
2022-12-24T05:15:01.678Z,3.70
2022-12-24T05:18:04.640Z,3.00
2022-12-24T05:21:14.583Z,3.60
2022-12-24T05:24:36.510Z,3.70
2022-12-24T05:27:39.573Z,3.60
2022-12-24T05:30:42.371Z,4.00
2022-12-24T05:33:45.889Z,3.20
2022-12-24T05:36:48.676Z,3.60
2022-12-24T05:39:51.526Z,3.70
2022-12-24T05:42:54.376Z,3.80
2022-12-24T05:46:07.469Z,3.70
2022-12-24T05:49:10.481Z,3.60
2022-12-24T05:52:13.352Z,3.50
2022-12-24T05:55:16.220Z,3.20
2022-12-24T05:58:19.024Z,3.70
2022-12-24T06:01:23.292Z,5.00
2022-12-24T06:04:28.956Z,3.50
2022-12-24T06:07:32.202Z,4.00
2022-12-24T06:10:35.072Z,3.70
2022-12-24T06:13:38.448Z,4.30
2022-12-24T06:16:41.442Z,3.00
2022-12-24T06:19:44.676Z,3.70
2022-12-24T06:22:47.538Z,3.90
2022-12-24T06:25:51.418Z,3.30
2022-12-24T06:28:54.277Z,2.20
2022-12-24T06:31:57.204Z,3.40
2022-12-24T06:35:00.137Z,4.30
2022-12-24T06:38:03.002Z,3.30
2022-12-24T06:41:07.627Z,3.60
2022-12-24T06:44:10.595Z,3.00
2022-12-24T06:47:13.407Z,3.70
2022-12-24T06:50:16.362Z,4.30
2022-12-24T06:53:19.298Z,3.10
2022-12-24T06:56:22.252Z,3.40
2022-12-24T06:59:25.261Z,3.30
2022-12-24T07:02:36.361Z,2.70
2022-12-24T07:05:42.587Z,2.60
2022-12-24T07:08:59.518Z,4.00
2022-12-24T07:12:12.587Z,2.60
2022-12-24T07:15:17.028Z,3.00
2022-12-24T07:18:20.093Z,3.40
2022-12-24T07:21:23.171Z,2.90
2022-12-24T07:24:34.608Z,1.90
2022-12-24T07:27:38.691Z,4.00
2022-12-24T07:30:41.618Z,4.70
2022-12-24T07:33:44.634Z,4.00
2022-12-24T07:36:47.659Z,2.80
2022-12-24T07:39:50.544Z,4.20
2022-12-24T07:42:53.492Z,2.40
2022-12-24T07:45:59.535Z,3.40
2022-12-24T07:49:02.436Z,3.10
2022-12-24T07:52:08.826Z,3.50
2022-12-24T07:55:12.248Z,5.50
2022-12-24T07:58:15.302Z,2.70
2022-12-24T08:01:19.523Z,3.40
2022-12-24T08:04:24.180Z,3.30
2022-12-24T08:07:27.304Z,3.70
2022-12-24T08:10:30.208Z,3.20
2022-12-24T08:13:33.148Z,3.50
2022-12-24T08:16:36.340Z,2.80
2022-12-24T08:19:39.373Z,4.20
2022-12-24T08:22:42.272Z,1.90
2022-12-24T08:25:47.070Z,2.90
2022-12-24T08:28:49.961Z,3.90
2022-12-24T08:31:52.883Z,3.20
2022-12-24T08:34:55.847Z,3.80
2022-12-24T08:37:59.112Z,3.00
2022-12-24T08:41:02.033Z,2.70
2022-12-24T08:44:05.159Z,3.20
2022-12-24T08:47:08.275Z,5.20
2022-12-24T08:50:12.498Z,3.40
2022-12-24T08:53:15.521Z,3.80
2022-12-24T08:56:18.478Z,7.50
2022-12-24T08:59:24.134Z,5.10
2022-12-24T09:02:27.178Z,4.10
2022-12-24T09:05:30.244Z,3.50
2022-12-24T09:08:33.592Z,2.20
2022-12-24T09:11:36.481Z,4.10
2022-12-24T09:14:39.478Z,4.50
2022-12-24T09:17:42.562Z,3.90
2022-12-24T09:20:46.978Z,4.30
2022-12-24T09:23:50.229Z,3.90
2022-12-24T09:26:57.668Z,2.60
2022-12-24T09:30:01.103Z,3.80
2022-12-24T09:33:04.142Z,4.70
2022-12-24T09:36:07.693Z,3.20
2022-12-24T09:39:10.516Z,5.00
2022-12-24T09:42:44.423Z,3.20
2022-12-24T09:46:01.381Z,1.70
2022-12-24T09:49:18.453Z,3.60
2022-12-24T09:52:40.572Z,3.90
2022-12-24T09:55:48.693Z,4.10
2022-12-24T09:59:00.110Z,2.80
2022-12-24T10:02:03.121Z,3.60
2022-12-24T10:05:10.255Z,2.70
2022-12-24T10:08:38.069Z,3.10
2022-12-24T10:12:08.847Z,2.60
2022-12-24T10:15:35.098Z,5.00
2022-12-24T10:18:56.983Z,5.50
2022-12-24T10:22:08.857Z,5.20
2022-12-24T10:25:25.575Z,3.00
2022-12-24T10:28:35.327Z,3.30
2022-12-24T10:31:53.315Z,2.20
2022-12-24T10:38:22.549Z,4.40
2022-12-24T10:41:29.890Z,4.60
2022-12-24T10:44:34.733Z,5.80
2022-12-24T10:47:41.102Z,6.00
2022-12-24T10:50:54.746Z,5.00
2022-12-24T10:54:07.194Z,4.50
2022-12-24T10:57:25.718Z,8.40
2022-12-24T11:00:35.486Z,6.80
2022-12-24T11:03:39.977Z,5.20
2022-12-24T11:06:56.425Z,6.80
2022-12-24T11:10:07.678Z,3.50
2022-12-24T11:13:41.519Z,5.10
2022-12-24T11:16:57.695Z,3.80
2022-12-24T11:20:03.525Z,3.70
2022-12-24T11:23:06.988Z,2.90
2022-12-24T11:26:10.204Z,3.10
2022-12-24T11:29:28.422Z,3.50
2022-12-24T11:32:31.313Z,3.50
2022-12-24T11:35:41.519Z,6.60
2022-12-24T11:38:53.352Z,4.40
2022-12-24T11:41:56.207Z,5.20
2022-12-24T11:45:02.187Z,3.40
2022-12-24T11:51:27.858Z,5.40
2022-12-24T11:54:37.219Z,3.50
2022-12-24T11:57:52.181Z,5.20
2022-12-24T12:01:33.315Z,5.30
2022-12-24T12:04:39.200Z,4.40
2022-12-24T12:07:43.208Z,4.50
2022-12-24T12:10:48.498Z,4.90
2022-12-24T12:13:52.570Z,4.60
2022-12-24T12:17:23.433Z,4.50
2022-12-24T12:20:40.667Z,4.90
2022-12-24T12:23:59.016Z,7.00
2022-12-24T12:27:28.079Z,12.10
2022-12-24T12:30:32.149Z,14.70
2022-12-24T12:33:43.480Z,6.20
2022-12-24T12:37:18.241Z,5.60
2022-12-24T12:40:27.446Z,5.20
2022-12-24T12:43:55.437Z,5.90
2022-12-24T12:47:04.572Z,3.90
2022-12-24T12:50:11.420Z,13.20
2022-12-24T12:53:20.620Z,9.00
2022-12-24T12:56:35.757Z,8.30
2022-12-24T12:59:53.204Z,6.80
2022-12-24T13:03:15.886Z,5.50
2022-12-24T13:06:55.994Z,5.50
2022-12-24T13:10:04.774Z,5.30
2022-12-24T13:13:31.314Z,3.00
2022-12-24T13:17:05.304Z,4.20
2022-12-24T13:20:20.672Z,5.30
2022-12-24T13:23:26.571Z,6.90
2022-12-24T13:26:29.561Z,7.70
2022-12-24T13:29:36.930Z,6.50
2022-12-24T13:32:52.084Z,7.60
2022-12-24T13:36:04.513Z,8.00
2022-12-24T13:39:19.838Z,5.20
2022-12-24T13:42:49.796Z,5.50
2022-12-24T13:45:52.741Z,6.00
2022-12-24T13:48:55.667Z,5.20
2022-12-24T13:52:10.828Z,6.40
2022-12-24T13:55:16.457Z,3.80
2022-12-24T13:58:22.772Z,7.10
2022-12-24T14:01:38.629Z,4.70
2022-12-24T14:04:42.512Z,6.90
2022-12-24T14:07:50.437Z,7.30
2022-12-24T14:11:19.806Z,6.60
2022-12-24T14:14:31.629Z,7.60
2022-12-24T14:17:36.346Z,8.80
2022-12-24T14:20:39.322Z,7.20
2022-12-24T14:24:03.165Z,11.20
2022-12-24T14:27:33.740Z,5.10
2022-12-24T14:30:36.576Z,9.90
2022-12-24T14:33:39.435Z,29.10
2022-12-24T14:36:44.740Z,28.80
2022-12-24T14:39:49.427Z,22.10
2022-12-24T14:43:30.001Z,19.80
2022-12-24T14:47:01.823Z,9.10
2022-12-24T14:50:18.958Z,6.60
2022-12-24T14:53:30.750Z,5.50
2022-12-24T14:56:33.666Z,10.60
2022-12-24T14:59:57.001Z,9.10
2022-12-24T15:03:00.162Z,12.40
2022-12-24T15:06:07.021Z,5.60
2022-12-24T15:09:27.286Z,4.40
2022-12-24T15:12:32.339Z,5.00
2022-12-24T15:15:36.599Z,5.00
2022-12-24T15:18:49.112Z,6.80
2022-12-24T15:21:52.928Z,7.20
2022-12-24T15:24:56.228Z,6.90
2022-12-24T15:27:59.644Z,16.90
2022-12-24T15:31:13.097Z,29.20
2022-12-24T15:34:35.177Z,37.20
2022-12-24T15:37:42.651Z,16.80
2022-12-24T15:40:48.991Z,23.00
2022-12-24T15:43:54.657Z,29.50
2022-12-24T15:47:00.026Z,17.60
2022-12-24T15:50:03.598Z,8.20
2022-12-24T15:53:20.377Z,6.20
2022-12-24T15:56:31.625Z,5.40
2022-12-24T15:59:38.753Z,6.00
2022-12-24T16:02:45.865Z,6.80
2022-12-24T16:06:09.720Z,8.50
2022-12-24T16:09:31.095Z,10.10
2022-12-24T16:12:35.119Z,8.40
2022-12-24T16:15:48.909Z,9.20
2022-12-24T16:18:51.713Z,5.50
2022-12-24T16:21:57.905Z,9.70
2022-12-24T16:25:23.077Z,6.50
2022-12-24T16:28:26.487Z,6.60
2022-12-24T16:31:54.566Z,5.10
2022-12-24T16:34:57.627Z,5.50
2022-12-24T16:38:00.548Z,7.10
2022-12-24T16:41:03.431Z,8.80
2022-12-24T16:44:06.386Z,3.50
2022-12-24T16:47:16.091Z,4.70
2022-12-24T16:50:19.315Z,6.70
2022-12-24T16:53:22.869Z,6.60
2022-12-24T16:56:25.642Z,7.00
2022-12-24T16:59:28.673Z,6.70
2022-12-24T17:02:31.672Z,5.50
2022-12-24T17:05:38.720Z,5.30
2022-12-24T17:08:41.661Z,7.80
2022-12-24T17:11:44.474Z,7.30
2022-12-24T17:14:47.365Z,6.70
2022-12-24T17:17:50.239Z,5.60
2022-12-24T17:21:01.556Z,6.90
2022-12-24T17:24:04.765Z,8.60
2022-12-24T17:27:07.692Z,9.50
2022-12-24T17:30:11.944Z,7.70
2022-12-24T17:33:15.234Z,9.70
2022-12-24T17:36:19.626Z,8.10
2022-12-24T17:39:27.721Z,7.40
2022-12-24T17:42:31.166Z,5.70
2022-12-24T17:45:34.181Z,10.20
2022-12-24T17:48:37.475Z,7.90
2022-12-24T17:51:45.273Z,5.90
2022-12-24T17:54:49.025Z,8.30
2022-12-24T17:57:51.919Z,7.90
2022-12-24T18:00:55.775Z,6.10
2022-12-24T18:04:01.224Z,9.90
2022-12-24T18:07:04.242Z,5.80
2022-12-24T18:10:08.025Z,8.40
2022-12-24T18:13:17.330Z,9.10
2022-12-24T18:16:25.878Z,8.40
2022-12-24T18:19:28.905Z,8.10
2022-12-24T18:22:31.894Z,7.10
2022-12-24T18:25:34.728Z,7.80
2022-12-24T18:28:38.463Z,6.00
2022-12-24T18:31:41.750Z,9.50
2022-12-24T18:34:44.688Z,9.20
2022-12-24T18:37:47.697Z,11.80
2022-12-24T18:40:50.609Z,10.20
2022-12-24T18:43:54.253Z,7.40
2022-12-24T18:46:57.114Z,12.40
2022-12-24T18:50:00.055Z,6.60
2022-12-24T18:53:04.268Z,7.90
2022-12-24T18:56:15.913Z,10.80
2022-12-24T18:59:24.036Z,9.80
2022-12-24T19:03:26.730Z,8.40
2022-12-24T19:06:30.581Z,8.30
2022-12-24T19:09:33.425Z,11.30
2022-12-24T19:12:36.232Z,10.10
2022-12-24T19:15:45.410Z,6.20
2022-12-24T19:18:48.372Z,8.30
2022-12-24T19:21:51.988Z,13.30
2022-12-24T19:24:54.867Z,9.90
2022-12-24T19:27:57.633Z,7.80
2022-12-24T19:31:09.325Z,10.60
2022-12-24T19:34:12.224Z,7.90
2022-12-24T19:37:15.221Z,6.80
2022-12-24T19:40:18.139Z,9.20
2022-12-24T19:43:20.991Z,10.80
2022-12-24T19:46:29.497Z,6.00
2022-12-24T19:49:32.533Z,4.80
2022-12-24T19:52:35.296Z,7.50
2022-12-24T19:55:38.106Z,9.90
2022-12-24T19:58:40.941Z,5.50
2022-12-24T20:01:44.428Z,8.50
2022-12-24T20:04:47.518Z,7.20
2022-12-24T20:07:50.570Z,7.60
2022-12-24T20:10:53.591Z,8.00
2022-12-24T20:14:01.980Z,9.10
2022-12-24T20:17:04.863Z,8.10
2022-12-24T20:20:08.300Z,9.40
2022-12-24T20:23:11.268Z,8.00
2022-12-24T20:26:17.280Z,5.30
2022-12-24T20:29:20.129Z,7.30
2022-12-24T20:32:22.916Z,6.40
2022-12-24T20:35:25.813Z,5.50
2022-12-24T20:38:28.623Z,6.80
2022-12-24T20:41:32.677Z,4.20
2022-12-24T20:44:35.584Z,6.20
2022-12-24T20:47:39.414Z,5.10
2022-12-24T20:50:42.315Z,5.90
2022-12-24T20:53:46.515Z,4.70
2022-12-24T20:56:57.750Z,5.70
2022-12-24T21:00:02.643Z,5.40
2022-12-24T21:03:05.744Z,6.10
2022-12-24T21:06:09.452Z,6.80
2022-12-24T21:09:12.527Z,6.10
2022-12-24T21:12:34.080Z,7.50
2022-12-24T21:15:42.536Z,8.80
2022-12-24T21:18:45.383Z,9.10
2022-12-24T21:21:48.953Z,7.20
2022-12-24T21:24:52.039Z,9.50
2022-12-24T21:27:55.727Z,5.90
2022-12-24T21:30:58.686Z,7.20
2022-12-24T21:34:03.497Z,6.30
2022-12-24T21:37:08.507Z,10.00
2022-12-24T21:40:12.137Z,10.60
2022-12-24T21:43:14.963Z,11.80
2022-12-24T21:46:23.241Z,9.10
2022-12-24T21:49:44.851Z,7.20
2022-12-24T21:52:49.200Z,8.50
2022-12-24T21:55:52.868Z,12.30
2022-12-24T21:58:55.701Z,8.70
2022-12-24T22:01:59.234Z,9.80
2022-12-24T22:05:02.254Z,8.50
2022-12-24T22:08:23.833Z,8.00
2022-12-24T22:11:50.259Z,9.40
2022-12-24T22:14:56.911Z,8.10
2022-12-24T22:17:59.839Z,10.10
2022-12-24T22:21:02.898Z,12.10
2022-12-24T22:24:06.398Z,13.50
2022-12-24T22:27:09.323Z,16.50
2022-12-24T22:30:12.464Z,13.30
2022-12-24T22:33:15.349Z,15.90
2022-12-24T22:36:18.101Z,13.60
2022-12-24T22:39:21.222Z,16.10
2022-12-24T22:42:24.018Z,17.30
2022-12-24T22:45:27.003Z,17.40
2022-12-24T22:48:29.831Z,17.80
2022-12-24T22:51:32.659Z,18.90
2022-12-24T22:54:36.538Z,15.00
2022-12-24T22:57:39.333Z,18.30
2022-12-24T23:00:44.565Z,16.40
2022-12-24T23:03:47.472Z,13.40
2022-12-24T23:06:50.541Z,15.30
2022-12-24T23:09:53.438Z,13.50
2022-12-24T23:13:15.568Z,15.10
2022-12-24T23:16:18.607Z,14.50
2022-12-24T23:19:21.458Z,12.70
2022-12-24T23:22:24.332Z,16.10
2022-12-24T23:25:27.276Z,16.60
2022-12-24T23:28:30.182Z,15.70
2022-12-24T23:31:35.024Z,13.30
2022-12-24T23:34:38.181Z,11.30
2022-12-24T23:37:41.127Z,11.20
2022-12-24T23:40:43.991Z,7.70
2022-12-24T23:43:47.633Z,10.30
2022-12-24T23:46:50.574Z,11.10
2022-12-24T23:49:53.428Z,11.50
2022-12-24T23:52:56.335Z,12.20
2022-12-24T23:55:59.211Z,13.50
2022-12-24T23:59:02.814Z,15.20
